Decoded Metar for LEIB (IBIZA in SPAIN) (IATA:IBZ) | Meteo·Mobile Aviation Weather
aviador You're here:

LEIB Decoded Metar

IBIZA in SPAIN
Report Time2018-08-22 06:30:00
UTC Time2018-08-22 07:00:21
Flight Rules vfr VFR
WindVRB at 02 kt
Visibility9999 m
Phenomena:N/A
Clouds:N/A
Expected CloudBase > 2,000 ft AGL from Temp-Dew spread
CeilingNone
Temp25°C (ISA +10)
Dew Point20°C (74% RH)
QNH1016 hPa
Density Alt1,414 ft
Elevation39 ft
Report Wrong Elevation
Raw Report
LEIB 220630Z VRB02KT CAVOK 25/20 Q1016 NOSIG=

Extra information for LEIB:More info

Metar Taf Metar & Taf Last 4 Metars F.Rules Stats Wind Profile Meteogram Temp Stats Airport Information Weather charts Add Link Nearby VenuesMetar ALERT Operation Metar Decoded Social comments